Time;durP1;ratioP1;P1;durP2;ratioP2;P2;SDS_P1;SDS_P2;PMS_P1;PMS_P2;Temp;Humidity;BMP_temperature;BMP_pressure;BME280_temperature;BME280_humidity;BME280_pressure;Samples;Min_cycle;Max_cycle;Signal;HPM_P1;HPM_P2
2024/02/04 00:01:24;;;;;;;12.55;6.50;;;;;;;;;;6307806;28;20048;-77
2024/02/04 00:04:27;;;;;;;12.70;6.60;;;;;;;;;;6266204;28;20135;-78
2024/02/04 00:07:29;;;;;;;10.63;6.75;;;;;;;;;;6268295;28;20160;-77
2024/02/04 00:10:32;;;;;;;12.93;7.22;;;;;;;;;;6283070;28;20045;-77
2024/02/04 00:13:34;;;;;;;12.77;7.65;;;;;;;;;;6272273;28;20055;-77
2024/02/04 00:16:37;;;;;;;11.68;6.78;;;;;;;;;;6309804;28;20469;-76
2024/02/04 00:19:39;;;;;;;8.38;5.18;;;;;;;;;;6273869;28;20410;-77
2024/02/04 00:22:41;;;;;;;10.23;5.72;;;;;;;;;;6270791;28;20045;-77
2024/02/04 00:25:43;;;;;;;10.80;6.53;;;;;;;;;;6270211;28;20036;-77
2024/02/04 00:28:46;;;;;;;9.68;6.78;;;;;;;;;;6279215;28;20059;-77
2024/02/04 00:31:48;;;;;;;8.98;5.25;;;;;;;;;;6278599;28;20124;-76
2024/02/04 00:34:52;;;;;;;10.18;7.88;;;;;;;;;;6269414;28;20426;-77
2024/02/04 00:37:54;;;;;;;8.07;4.78;;;;;;;;;;6273219;28;20079;-77
2024/02/04 00:40:57;;;;;;;10.82;8.63;;;;;;;;;;6269066;28;20444;-77
2024/02/04 00:44:00;;;;;;;10.70;5.40;;;;;;;;;;6287348;28;20153;-77
2024/02/04 00:47:02;;;;;;;10.05;5.35;;;;;;;;;;6290431;28;20052;-77
2024/02/04 00:50:06;;;;;;;9.77;5.32;;;;;;;;;;6265385;28;20047;-76
2024/02/04 00:53:09;;;;;;;7.32;5.05;;;;;;;;;;6284484;28;20040;-77
2024/02/04 00:56:11;;;;;;;8.07;6.03;;;;;;;;;;6288957;28;20075;-77
2024/02/04 00:59:14;;;;;;;9.07;7.88;;;;;;;;;;6269466;28;20797;-76
2024/02/04 01:02:16;;;;;;;7.53;4.63;;;;;;;;;;6286000;28;20190;-77
2024/02/04 01:05:18;;;;;;;8.05;4.97;;;;;;;;;;6287688;28;20116;-77
2024/02/04 01:08:20;;;;;;;10.10;5.50;;;;;;;;;;6285172;28;20048;-77
2024/02/04 01:11:23;;;;;;;11.15;6.13;;;;;;;;;;6272247;28;20108;-77
2024/02/04 01:14:25;;;;;;;9.20;5.88;;;;;;;;;;6266979;28;20130;-77
2024/02/04 01:17:28;;;;;;;11.40;5.82;;;;;;;;;;6282587;28;20131;-77
2024/02/04 01:20:31;;;;;;;13.55;6.28;;;;;;;;;;6284043;28;20047;-77
2024/02/04 01:23:33;;;;;;;6.80;4.35;;;;;;;;;;6307077;28;20055;-77
2024/02/04 01:26:35;;;;;;;11.30;5.63;;;;;;;;;;6288476;28;20086;-77
2024/02/04 01:29:37;;;;;;;11.90;6.00;;;;;;;;;;6286271;28;20129;-77
2024/02/04 01:32:40;;;;;;;9.38;5.50;;;;;;;;;;6270188;28;20052;-77
2024/02/04 01:35:42;;;;;;;18.42;8.48;;;;;;;;;;6286000;28;20198;-77
2024/02/04 01:38:45;;;;;;;9.40;5.70;;;;;;;;;;6301190;28;20119;-77
2024/02/04 01:41:47;;;;;;;9.70;6.47;;;;;;;;;;6287660;28;20051;-77
2024/02/04 01:44:49;;;;;;;9.93;6.43;;;;;;;;;;6264192;28;20079;-77
2024/02/04 01:47:52;;;;;;;9.25;5.90;;;;;;;;;;6285593;28;20719;-77
2024/02/04 01:50:56;;;;;;;10.18;5.85;;;;;;;;;;6281026;28;20044;-77
2024/02/04 01:53:58;;;;;;;7.57;5.68;;;;;;;;;;6265308;28;20115;-77
2024/02/04 01:57:01;;;;;;;9.27;8.23;;;;;;;;;;6271307;28;20726;-77
2024/02/04 02:00:04;;;;;;;13.25;8.30;;;;;;;;;;6246669;28;20524;-77
2024/02/04 02:03:11;;;;;;;11.05;5.03;;;;;;;;;;6288754;28;20048;-77
2024/02/04 02:06:15;;;;;;;10.35;5.38;;;;;;;;;;6238931;28;20080;-77
2024/02/04 02:09:17;;;;;;;8.35;4.70;;;;;;;;;;6285369;28;20581;-77
2024/02/04 02:12:24;;;;;;;8.25;5.57;;;;;;;;;;6277287;28;20044;-77
2024/02/04 02:15:39;;;;;;;8.20;4.93;;;;;;;;;;6249341;28;20074;-77
2024/02/04 02:18:45;;;;;;;11.93;6.32;;;;;;;;;;6286539;28;20106;-77
2024/02/04 02:21:57;;;;;;;8.63;7.20;;;;;;;;;;6260063;28;20541;-77
2024/02/04 02:25:00;;;;;;;;;;;;;;;;;;6255691;28;20114;-77
2024/02/04 02:28:03;;;;;;;6.68;5.00;;;;;;;;;;6273153;28;19927;-77
2024/02/04 02:31:05;;;;;;;11.77;5.40;;;;;;;;;;6251339;28;20146;-77
2024/02/04 02:34:09;;;;;;;8.23;4.75;;;;;;;;;;6259953;28;20134;-77
2024/02/04 02:37:18;;;;;;;10.55;5.97;;;;;;;;;;6267015;28;20055;-77
2024/02/04 02:40:27;;;;;;;8.20;6.10;;;;;;;;;;6268508;28;20040;-76
2024/02/04 02:43:32;;;;;;;10.70;6.35;;;;;;;;;;6289549;28;20097;-76
2024/02/04 02:46:35;;;;;;;11.02;5.35;;;;;;;;;;6254894;28;20055;-76
2024/02/04 02:49:38;;;;;;;7.75;5.28;;;;;;;;;;6288642;28;20436;-77
2024/02/04 02:52:41;;;;;;;10.23;7.60;;;;;;;;;;6252457;28;20441;-78
2024/02/04 02:55:46;;;;;;;9.13;5.55;;;;;;;;;;6269857;28;20056;-77
2024/02/04 02:58:49;;;;;;;8.98;5.63;;;;;;;;;;6273169;28;20049;-78
2024/02/04 03:01:51;;;;;;;10.65;5.80;;;;;;;;;;6306189;28;20359;-77
2024/02/04 03:04:54;;;;;;;8.23;5.28;;;;;;;;;;6279657;28;20056;-77
2024/02/04 03:07:56;;;;;;;10.57;6.57;;;;;;;;;;6274225;28;20052;-77
2024/02/04 03:10:59;;;;;;;11.00;6.75;;;;;;;;;;6295680;28;20044;-78
2024/02/04 03:14:02;;;;;;;10.77;6.60;;;;;;;;;;6310530;28;20040;-77
2024/02/04 03:17:04;;;;;;;9.68;6.70;;;;;;;;;;6299904;28;20036;-76
2024/02/04 03:20:07;;;;;;;9.50;6.28;;;;;;;;;;6300905;28;20053;-76
2024/02/04 03:23:10;;;;;;;9.20;5.75;;;;;;;;;;6301557;28;20040;-76
2024/02/04 03:26:17;;;;;;;12.23;8.40;;;;;;;;;;6264612;28;20040;-77
2024/02/04 03:29:20;;;;;;;8.75;6.07;;;;;;;;;;6275223;28;20055;-76
2024/02/04 03:32:22;;;;;;;8.10;5.63;;;;;;;;;;6268122;28;20055;-78
2024/02/04 03:35:25;;;;;;;9.35;6.28;;;;;;;;;;6269573;28;20047;-77
2024/02/04 03:38:27;;;;;;;8.35;5.78;;;;;;;;;;6270997;28;20474;-77
2024/02/04 03:41:29;;;;;;;9.73;6.70;;;;;;;;;;6304955;28;20143;-77
2024/02/04 03:44:32;;;;;;;11.98;7.45;;;;;;;;;;6271131;28;20055;-78
2024/02/04 03:47:35;;;;;;;11.50;5.85;;;;;;;;;;6309554;28;20048;-76
2024/02/04 03:50:37;;;;;;;8.15;5.57;;;;;;;;;;6256983;28;20047;-78
2024/02/04 03:53:39;;;;;;;11.75;6.72;;;;;;;;;;6293636;28;20078;-78
2024/02/04 03:56:42;;;;;;;8.43;6.25;;;;;;;;;;6276162;28;20051;-77
2024/02/04 03:59:47;;;;;;;9.27;5.18;;;;;;;;;;6262004;28;20059;-77
2024/02/04 04:02:49;;;;;;;11.93;10.73;;;;;;;;;;6286649;28;20703;-78
2024/02/04 04:05:54;;;;;;;10.10;5.97;;;;;;;;;;6300624;28;20051;-79
2024/02/04 04:08:58;;;;;;;10.55;6.93;;;;;;;;;;6314301;28;20532;-79
2024/02/04 04:12:01;;;;;;;11.88;6.55;;;;;;;;;;6340760;28;20060;-79
2024/02/04 04:15:03;;;;;;;10.60;7.50;;;;;;;;;;6310037;28;20076;-79
2024/02/04 04:18:06;;;;;;;12.70;8.02;;;;;;;;;;6304534;28;20505;-79
2024/02/04 04:21:09;;;;;;;9.88;5.72;;;;;;;;;;6257553;28;20882;-78
2024/02/04 04:24:15;;;;;;;11.48;7.55;;;;;;;;;;6281348;28;20076;-78
2024/02/04 04:27:18;;;;;;;12.52;7.90;;;;;;;;;;6302849;28;20043;-78
2024/02/04 04:30:20;;;;;;;13.07;7.72;;;;;;;;;;6283314;28;20032;-78
2024/02/04 04:33:22;;;;;;;9.65;6.47;;;;;;;;;;6254365;28;20101;-78
2024/02/04 04:36:25;;;;;;;9.02;6.03;;;;;;;;;;6282955;28;20040;-78
2024/02/04 04:39:29;;;;;;;11.38;7.00;;;;;;;;;;6283067;28;20052;-77
2024/02/04 04:42:32;;;;;;;10.68;6.30;;;;;;;;;;6270181;28;20097;-77
2024/02/04 04:45:34;;;;;;;9.45;5.38;;;;;;;;;;6266445;28;20100;-77
2024/02/04 04:48:36;;;;;;;8.20;5.88;;;;;;;;;;6285382;28;20052;-76
2024/02/04 04:51:39;;;;;;;10.95;6.22;;;;;;;;;;6263581;28;20987;-77
2024/02/04 04:54:41;;;;;;;10.25;6.43;;;;;;;;;;6284332;28;20576;-75
2024/02/04 04:57:43;;;;;;;9.57;6.18;;;;;;;;;;6266446;28;20052;-76
2024/02/04 05:00:46;;;;;;;10.52;6.55;;;;;;;;;;6295284;28;20059;-78
2024/02/04 05:03:49;;;;;;;9.57;5.75;;;;;;;;;;6288441;28;20528;-77
2024/02/04 05:06:55;;;;;;;6.40;4.45;;;;;;;;;;6291622;28;20047;-78
2024/02/04 05:09:57;;;;;;;9.90;6.63;;;;;;;;;;6288344;28;20190;-77
2024/02/04 05:12:59;;;;;;;7.72;5.72;;;;;;;;;;6276437;28;20036;-77
2024/02/04 05:16:02;;;;;;;9.02;6.32;;;;;;;;;;6283778;28;20548;-78
2024/02/04 05:19:05;;;;;;;10.57;6.38;;;;;;;;;;6293016;28;20055;-77
2024/02/04 05:22:07;;;;;;;8.63;5.85;;;;;;;;;;6267369;28;20044;-79
2024/02/04 05:25:15;;;;;;;10.88;7.03;;;;;;;;;;6281121;28;20487;-79
2024/02/04 05:28:17;;;;;;;8.48;6.05;;;;;;;;;;6304093;28;20656;-81
2024/02/04 05:31:20;;;;;;;10.63;6.85;;;;;;;;;;6260021;28;20047;-78
2024/02/04 05:34:22;;;;;;;11.43;5.35;;;;;;;;;;6286205;28;20130;-76
2024/02/04 05:37:24;;;;;;;9.35;6.15;;;;;;;;;;6267961;28;20064;-76
2024/02/04 05:40:27;;;;;;;9.32;5.18;;;;;;;;;;6268887;28;20040;-77
2024/02/04 05:43:33;;;;;;;9.27;6.13;;;;;;;;;;6289036;28;20056;-78
2024/02/04 05:46:38;;;;;;;9.38;6.30;;;;;;;;;;6271268;28;20093;-77
2024/02/04 05:49:41;;;;;;;8.18;5.72;;;;;;;;;;6268252;28;20054;-76
2024/02/04 05:52:44;;;;;;;10.30;7.55;;;;;;;;;;6276864;28;20035;-78
2024/02/04 05:55:47;;;;;;;11.32;6.32;;;;;;;;;;6308168;28;20052;-76
2024/02/04 05:58:49;;;;;;;12.75;6.95;;;;;;;;;;6292947;28;20040;-78
2024/02/04 06:01:53;;;;;;;12.32;6.47;;;;;;;;;;6262869;28;20067;-77
2024/02/04 06:04:55;;;;;;;10.18;6.47;;;;;;;;;;6280126;28;20045;-79
2024/02/04 06:07:57;;;;;;;10.80;7.93;;;;;;;;;;6282986;28;20560;-78
2024/02/04 06:11:00;;;;;;;11.57;6.90;;;;;;;;;;6251565;28;20051;-77
2024/02/04 06:14:05;;;;;;;11.60;7.13;;;;;;;;;;6266227;28;20083;-79
2024/02/04 06:17:10;;;;;;;8.32;5.53;;;;;;;;;;6267575;28;20048;-77
2024/02/04 06:20:12;;;;;;;14.15;7.47;;;;;;;;;;6298793;28;20058;-78
2024/02/04 06:23:15;;;;;;;12.63;8.02;;;;;;;;;;6276084;28;20205;-79
2024/02/04 06:26:18;;;;;;;10.30;6.55;;;;;;;;;;6308735;28;20275;-77
2024/02/04 06:29:20;;;;;;;9.55;6.32;;;;;;;;;;6278480;28;20510;-79
2024/02/04 06:32:24;;;;;;;11.13;6.82;;;;;;;;;;6302399;28;20592;-77
2024/02/04 06:35:26;;;;;;;12.20;6.95;;;;;;;;;;6245365;28;20138;-77
2024/02/04 06:38:28;;;;;;;8.57;6.25;;;;;;;;;;6285311;28;20113;-78
2024/02/04 06:41:34;;;;;;;9.30;6.45;;;;;;;;;;6280745;28;20136;-77
2024/02/04 06:44:36;;;;;;;13.15;8.75;;;;;;;;;;6264780;28;20048;-78
2024/02/04 06:47:44;;;;;;;11.30;8.45;;;;;;;;;;6266246;28;20051;-78
2024/02/04 06:50:47;;;;;;;10.05;7.22;;;;;;;;;;6260654;28;20653;-77
2024/02/04 06:53:50;;;;;;;12.95;8.85;;;;;;;;;;6284837;28;20051;-78
2024/02/04 06:56:53;;;;;;;13.60;7.63;;;;;;;;;;6275342;28;20052;-78
2024/02/04 06:59:55;;;;;;;11.65;8.38;;;;;;;;;;6251117;28;20056;-77
2024/02/04 07:02:57;;;;;;;10.60;7.25;;;;;;;;;;6282830;28;20040;-77
2024/02/04 07:06:00;;;;;;;12.98;9.55;;;;;;;;;;6282249;28;20072;-77
2024/02/04 07:09:02;;;;;;;9.88;6.60;;;;;;;;;;6263228;28;20045;-77
2024/02/04 07:12:05;;;;;;;11.23;9.07;;;;;;;;;;6285612;28;20442;-78
2024/02/04 07:15:08;;;;;;;11.38;8.48;;;;;;;;;;6308213;28;20915;-77
2024/02/04 07:18:11;;;;;;;13.93;7.35;;;;;;;;;;6273207;28;20039;-77
2024/02/04 07:21:14;;;;;;;12.05;8.60;;;;;;;;;;6250535;28;20671;-77
2024/02/04 07:24:18;;;;;;;11.10;5.85;;;;;;;;;;6270479;28;20734;-77
2024/02/04 07:27:22;;;;;;;10.30;7.70;;;;;;;;;;6283879;28;20044;-80
2024/02/04 07:30:25;;;;;;;9.20;5.82;;;;;;;;;;6268859;28;20137;-78
2024/02/04 07:33:27;;;;;;;12.82;7.43;;;;;;;;;;6270696;28;20046;-78
2024/02/04 07:36:33;;;;;;;11.23;7.72;;;;;;;;;;6282702;28;20041;-76
2024/02/04 07:39:36;;;;;;;7.90;5.18;;;;;;;;;;6301675;28;20052;-77
2024/02/04 07:42:39;;;;;;;11.85;7.43;;;;;;;;;;6303571;28;20505;-77
2024/02/04 07:45:42;;;;;;;8.27;5.88;;;;;;;;;;6272667;28;20048;-76
2024/02/04 07:48:44;;;;;;;9.43;5.95;;;;;;;;;;6269459;28;20050;-78
2024/02/04 07:51:47;;;;;;;10.25;6.60;;;;;;;;;;6286602;28;20033;-76
2024/02/04 07:54:50;;;;;;;9.90;8.35;;;;;;;;;;6280465;28;20542;-75
2024/02/04 07:57:53;;;;;;;8.73;6.13;;;;;;;;;;6294119;28;20078;-78
2024/02/04 08:00:55;;;;;;;8.10;5.40;;;;;;;;;;6304580;28;20048;-75
2024/02/04 08:03:58;;;;;;;7.65;4.38;;;;;;;;;;6279123;28;20040;-76
2024/02/04 08:07:02;;;;;;;8.50;4.93;;;;;;;;;;6268334;28;20782;-76
2024/02/04 08:10:05;;;;;;;5.53;3.70;;;;;;;;;;6273288;28;20040;-75
2024/02/04 08:13:08;;;;;;;8.15;3.88;;;;;;;;;;6283196;28;20052;-77
2024/02/04 08:16:11;;;;;;;7.93;4.90;;;;;;;;;;6270000;28;20525;-75
2024/02/04 08:19:15;;;;;;;6.88;4.50;;;;;;;;;;6270348;28;20056;-75
2024/02/04 08:22:19;;;;;;;6.55;5.30;;;;;;;;;;6266364;28;20041;-75
2024/02/04 08:25:21;;;;;;;7.85;4.65;;;;;;;;;;6290494;28;20047;-78
2024/02/04 08:28:25;;;;;;;9.88;8.90;;;;;;;;;;6285189;28;20421;-77
2024/02/04 08:31:29;;;;;;;5.35;3.10;;;;;;;;;;6283852;28;20044;-75
2024/02/04 08:34:31;;;;;;;10.73;4.78;;;;;;;;;;6271296;28;20501;-77
2024/02/04 08:37:37;;;;;;;8.50;4.53;;;;;;;;;;6288540;28;20051;-77
2024/02/04 08:40:40;;;;;;;7.18;4.35;;;;;;;;;;6282513;28;20055;-76
2024/02/04 08:43:42;;;;;;;8.23;5.45;;;;;;;;;;6303170;28;20044;-76
2024/02/04 08:46:45;;;;;;;4.93;3.33;;;;;;;;;;6281802;28;20040;-77
2024/02/04 08:49:48;;;;;;;5.32;3.38;;;;;;;;;;6305778;28;20051;-75
2024/02/04 08:52:53;;;;;;;8.40;5.07;;;;;;;;;;6304580;28;20043;-76
2024/02/04 08:55:55;;;;;;;7.90;4.40;;;;;;;;;;6285969;28;20040;-75
2024/02/04 08:58:59;;;;;;;5.50;2.50;;;;;;;;;;6266458;28;20056;-76
2024/02/04 09:02:01;;;;;;;6.10;3.10;;;;;;;;;;6284343;28;20520;-75
2024/02/04 09:05:08;;;;;;;7.60;4.63;;;;;;;;;;6250014;28;20059;-74
2024/02/04 09:08:10;;;;;;;9.35;5.63;;;;;;;;;;6301124;28;20084;-75
2024/02/04 09:11:18;;;;;;;4.97;3.25;;;;;;;;;;6272960;28;20047;-74
2024/02/04 09:14:20;;;;;;;4.07;2.38;;;;;;;;;;6273021;28;20456;-76
2024/02/04 09:17:22;;;;;;;5.40;2.92;;;;;;;;;;6309142;28;20136;-76
2024/02/04 09:20:25;;;;;;;6.72;2.90;;;;;;;;;;6295163;28;20048;-75
2024/02/04 09:23:28;;;;;;;4.22;2.40;;;;;;;;;;6274616;28;20513;-75
2024/02/04 09:26:31;;;;;;;4.28;2.40;;;;;;;;;;6287880;28;20086;-76
2024/02/04 09:29:33;;;;;;;3.17;2.33;;;;;;;;;;6281165;28;20044;-78
2024/02/04 09:32:36;;;;;;;8.65;3.95;;;;;;;;;;6285130;28;20043;-77
2024/02/04 09:35:39;;;;;;;5.80;4.95;;;;;;;;;;6277694;28;21017;-76
2024/02/04 09:38:41;;;;;;;6.03;3.15;;;;;;;;;;6258234;28;20048;-75
2024/02/04 09:41:44;;;;;;;4.60;2.38;;;;;;;;;;6263726;28;20084;-77
2024/02/04 09:44:48;;;;;;;14.65;6.63;;;;;;;;;;6282718;28;20055;-76
2024/02/04 09:47:52;;;;;;;13.25;5.35;;;;;;;;;;6281831;28;20101;-76
2024/02/04 09:50:56;;;;;;;5.55;2.67;;;;;;;;;;6245407;28;20059;-75
2024/02/04 09:54:03;;;;;;;5.07;2.70;;;;;;;;;;6300230;28;20036;-75
2024/02/04 09:57:05;;;;;;;6.22;4.13;;;;;;;;;;6271199;28;20110;-77
2024/02/04 10:00:10;;;;;;;3.78;3.38;;;;;;;;;;6288523;28;20354;-76
2024/02/04 10:03:15;;;;;;;2.60;1.83;;;;;;;;;;6304542;28;20716;-78
2024/02/04 10:06:17;;;;;;;4.97;2.88;;;;;;;;;;6289223;28;20813;-77
2024/02/04 10:09:20;;;;;;;4.90;2.60;;;;;;;;;;6289507;28;20134;-77
2024/02/04 10:12:22;;;;;;;7.63;4.50;;;;;;;;;;6269431;28;20064;-77
2024/02/04 10:15:30;;;;;;;6.30;5.70;;;;;;;;;;6265347;28;20508;-78
2024/02/04 10:18:33;;;;;;;4.15;2.20;;;;;;;;;;6309039;28;20880;-77
2024/02/04 10:21:36;;;;;;;2.83;2.35;;;;;;;;;;6283887;28;20043;-77
2024/02/04 10:24:39;;;;;;;5.53;1.90;;;;;;;;;;6265491;28;20112;-76
2024/02/04 10:27:42;;;;;;;4.03;2.53;;;;;;;;;;6262368;28;20848;-76
2024/02/04 10:30:47;;;;;;;3.28;2.30;;;;;;;;;;6282117;28;20048;-78
2024/02/04 10:33:51;;;;;;;3.67;2.03;;;;;;;;;;6308216;28;20077;-78
2024/02/04 10:36:56;;;;;;;6.10;1.63;;;;;;;;;;6292077;28;20040;-77
2024/02/04 10:39:58;;;;;;;;;;;;;;;;;;6307527;28;20048;-78
2024/02/04 10:43:05;;;;;;;4.53;2.20;;;;;;;;;;6287296;28;19935;-77
2024/02/04 10:46:14;;;;;;;3.75;2.17;;;;;;;;;;6260663;28;20647;-77
2024/02/04 10:49:19;;;;;;;3.42;2.30;;;;;;;;;;6310392;28;20448;-77
2024/02/04 10:52:23;;;;;;;6.18;2.33;;;;;;;;;;6287821;28;20043;-77
2024/02/04 10:55:29;;;;;;;4.00;2.05;;;;;;;;;;6287672;28;20135;-78
2024/02/04 10:58:31;;;;;;;4.20;2.40;;;;;;;;;;6301250;28;20055;-77
2024/02/04 11:01:33;;;;;;;5.28;2.17;;;;;;;;;;6293183;28;20117;-77
2024/02/04 11:04:36;;;;;;;6.65;1.50;;;;;;;;;;6262171;28;20044;-78
2024/02/04 11:07:39;;;;;;;3.00;1.85;;;;;;;;;;6315327;28;20043;-78
2024/02/04 11:10:42;;;;;;;3.83;1.75;;;;;;;;;;6284566;28;20083;-77
2024/02/04 11:13:45;;;;;;;4.72;2.75;;;;;;;;;;6290022;28;20032;-77
2024/02/04 11:17:16;;;;;;;2.63;2.00;;;;;;;;;;6273619;28;20110;-77
2024/02/04 11:20:53;;;;;;;3.53;1.45;;;;;;;;;;6294531;28;20064;-77
2024/02/04 11:23:57;;;;;;;3.00;1.65;;;;;;;;;;6312218;28;20044;-77
2024/02/04 11:26:59;;;;;;;3.35;2.35;;;;;;;;;;6259859;28;20051;-77
2024/02/04 11:30:01;;;;;;;6.00;1.70;;;;;;;;;;6251574;28;20052;-78
2024/02/04 11:33:04;;;;;;;3.38;1.90;;;;;;;;;;6251248;28;20040;-77
2024/02/04 11:36:08;;;;;;;4.45;4.15;;;;;;;;;;6269231;28;20434;-75
2024/02/04 11:39:15;;;;;;;2.55;1.40;;;;;;;;;;6268626;28;20112;-76
2024/02/04 11:42:19;;;;;;;3.92;1.50;;;;;;;;;;6262302;28;20460;-77
2024/02/04 11:45:22;;;;;;;5.90;2.75;;;;;;;;;;6270518;28;20037;-76
2024/02/04 11:48:30;;;;;;;3.88;2.72;;;;;;;;;;6286065;28;20052;-76
2024/02/04 11:51:32;;;;;;;3.80;2.30;;;;;;;;;;6282150;28;20036;-77
2024/02/04 11:54:34;;;;;;;6.03;3.47;;;;;;;;;;6272182;28;20048;-77
2024/02/04 11:57:37;;;;;;;5.28;3.33;;;;;;;;;;6305212;28;20055;-77
2024/02/04 12:00:44;;;;;;;3.42;2.00;;;;;;;;;;6276158;28;20048;-77
2024/02/04 12:03:46;;;;;;;4.57;2.63;;;;;;;;;;6286630;28;20044;-77
2024/02/04 12:06:49;;;;;;;5.47;4.97;;;;;;;;;;6267994;28;20581;-77
2024/02/04 12:09:51;;;;;;;5.43;5.03;;;;;;;;;;6279501;28;20764;-77
2024/02/04 12:12:54;;;;;;;2.85;1.58;;;;;;;;;;6274667;28;20048;-76
2024/02/04 12:15:57;;;;;;;3.13;1.70;;;;;;;;;;6286390;28;20044;-75
2024/02/04 12:18:59;;;;;;;6.78;5.63;;;;;;;;;;6277949;28;20430;-74
2024/02/04 12:22:05;;;;;;;2.83;1.77;;;;;;;;;;6321074;28;20428;-75
2024/02/04 12:25:08;;;;;;;3.35;1.70;;;;;;;;;;6293922;28;20047;-75
2024/02/04 12:28:10;;;;;;;3.22;1.73;;;;;;;;;;6297362;28;20040;-76
2024/02/04 12:31:19;;;;;;;7.20;1.90;;;;;;;;;;6277141;28;20079;-76
2024/02/04 12:34:22;;;;;;;4.75;1.73;;;;;;;;;;6271957;28;20048;-76
2024/02/04 12:37:26;;;;;;;4.07;1.30;;;;;;;;;;6274211;28;20086;-76
2024/02/04 12:40:30;;;;;;;3.75;1.70;;;;;;;;;;6265242;28;20060;-77
2024/02/04 12:43:32;;;;;;;4.13;3.08;;;;;;;;;;6260731;28;20051;-76
2024/02/04 12:46:35;;;;;;;5.80;3.20;;;;;;;;;;6253660;28;20116;-76
2024/02/04 12:49:39;;;;;;;3.65;2.00;;;;;;;;;;6259337;28;20078;-75
2024/02/04 12:52:42;;;;;;;5.32;2.25;;;;;;;;;;6272579;28;20842;-76
2024/02/04 12:55:44;;;;;;;5.22;3.50;;;;;;;;;;6271362;28;20230;-77
2024/02/04 12:58:46;;;;;;;4.00;2.65;;;;;;;;;;6280186;28;20445;-77
2024/02/04 13:01:52;;;;;;;3.50;2.13;;;;;;;;;;6291907;28;20520;-75
2024/02/04 13:04:54;;;;;;;3.50;2.33;;;;;;;;;;6287040;28;20054;-77
2024/02/04 13:08:02;;;;;;;3.30;1.83;;;;;;;;;;6261474;28;20094;-78
2024/02/04 13:11:04;;;;;;;5.90;5.38;;;;;;;;;;6277602;28;20133;-77
2024/02/04 13:14:06;;;;;;;3.05;2.30;;;;;;;;;;6282083;28;20050;-75
2024/02/04 13:17:10;;;;;;;4.05;1.83;;;;;;;;;;6295785;28;20099;-77
2024/02/04 13:20:13;;;;;;;3.97;2.10;;;;;;;;;;6284953;28;20055;-76
2024/02/04 13:23:15;;;;;;;5.93;5.43;;;;;;;;;;6306416;28;20986;-76
2024/02/04 13:26:17;;;;;;;6.65;2.15;;;;;;;;;;6266524;28;20193;-78
2024/02/04 13:29:19;;;;;;;3.33;1.67;;;;;;;;;;6273665;28;20056;-77
2024/02/04 13:32:21;;;;;;;3.60;2.40;;;;;;;;;;6273906;28;20086;-77
2024/02/04 13:35:24;;;;;;;4.97;2.70;;;;;;;;;;6295128;28;20052;-78
2024/02/04 13:38:26;;;;;;;3.83;2.75;;;;;;;;;;6268887;28;20040;-76
2024/02/04 13:41:29;;;;;;;5.03;2.05;;;;;;;;;;6290494;28;20052;-76
2024/02/04 13:44:32;;;;;;;4.10;2.35;;;;;;;;;;6281959;28;20036;-76
2024/02/04 13:47:35;;;;;;;6.50;2.65;;;;;;;;;;6284259;28;20048;-76
2024/02/04 13:50:38;;;;;;;5.90;2.58;;;;;;;;;;6277871;28;20051;-75
2024/02/04 13:53:40;;;;;;;2.70;1.77;;;;;;;;;;6287238;28;20130;-76
2024/02/04 13:56:42;;;;;;;3.88;2.17;;;;;;;;;;6293383;28;20181;-76
2024/02/04 13:59:45;;;;;;;3.50;2.05;;;;;;;;;;6274324;28;20036;-77
2024/02/04 14:02:47;;;;;;;4.20;1.90;;;;;;;;;;6267239;28;20040;-79
2024/02/04 14:05:51;;;;;;;3.00;1.85;;;;;;;;;;6283535;28;20401;-78
2024/02/04 14:08:53;;;;;;;2.70;1.52;;;;;;;;;;6282147;28;20075;-77
2024/02/04 14:11:56;;;;;;;3.40;1.98;;;;;;;;;;6302194;28;20051;-76
2024/02/04 14:14:59;;;;;;;5.90;2.78;;;;;;;;;;6264937;28;20131;-76
2024/02/04 14:18:02;;;;;;;2.65;1.65;;;;;;;;;;6263915;28;20044;-76
2024/02/04 14:21:05;;;;;;;7.43;2.55;;;;;;;;;;6294668;28;20091;-77
2024/02/04 14:24:08;;;;;;;3.60;2.08;;;;;;;;;;6285408;28;20036;-77
2024/02/04 14:27:10;;;;;;;3.58;2.00;;;;;;;;;;6285563;28;20048;-76
2024/02/04 14:30:12;;;;;;;5.40;2.88;;;;;;;;;;6267401;28;20051;-75
2024/02/04 14:33:14;;;;;;;4.47;3.08;;;;;;;;;;6272027;28;20036;-77
2024/02/04 14:36:16;;;;;;;4.93;3.08;;;;;;;;;;6292916;28;20051;-76
2024/02/04 14:39:19;;;;;;;5.80;2.95;;;;;;;;;;6272679;28;20048;-77
2024/02/04 14:42:21;;;;;;;3.15;2.03;;;;;;;;;;6276245;28;20072;-77
2024/02/04 14:45:23;;;;;;;11.35;4.65;;;;;;;;;;6257543;28;20051;-76
2024/02/04 14:48:25;;;;;;;3.60;2.42;;;;;;;;;;6285752;28;21035;-76
2024/02/04 14:51:28;;;;;;;4.97;2.60;;;;;;;;;;6272260;28;20047;-76
2024/02/04 14:54:30;;;;;;;3.15;2.00;;;;;;;;;;6238421;28;20500;-78
2024/02/04 14:57:32;;;;;;;7.03;2.75;;;;;;;;;;6268944;28;20129;-76
2024/02/04 15:00:34;;;;;;;4.13;1.67;;;;;;;;;;6286774;28;20060;-75
2024/02/04 15:03:36;;;;;;;5.90;1.85;;;;;;;;;;6256020;28;20040;-76
2024/02/04 15:06:40;;;;;;;6.57;2.70;;;;;;;;;;6301785;28;20047;-75
2024/02/04 15:09:42;;;;;;;4.35;2.63;;;;;;;;;;6310805;28;20595;-76
2024/02/04 15:12:45;;;;;;;3.95;1.77;;;;;;;;;;6287691;28;20071;-77
2024/02/04 15:15:47;;;;;;;4.03;2.30;;;;;;;;;;6281112;28;20637;-76
2024/02/04 15:18:50;;;;;;;4.47;2.28;;;;;;;;;;6306163;28;20043;-77
2024/02/04 15:21:52;;;;;;;7.45;3.08;;;;;;;;;;6275659;28;20042;-74
2024/02/04 15:24:55;;;;;;;4.93;1.88;;;;;;;;;;6273019;28;20048;-75
2024/02/04 15:27:59;;;;;;;3.92;2.10;;;;;;;;;;6310252;28;20082;-77
2024/02/04 15:31:02;;;;;;;6.65;3.50;;;;;;;;;;6283108;28;20055;-77
2024/02/04 15:34:05;;;;;;;5.57;3.75;;;;;;;;;;6300805;28;20048;-76
2024/02/04 15:37:11;;;;;;;5.15;2.55;;;;;;;;;;6319118;28;20418;-77
2024/02/04 15:40:15;;;;;;;;;;;;;;;;;;6276138;28;20052;-77
2024/02/04 15:43:17;;;;;;;8.65;6.10;;;;;;;;;;6295602;28;20746;-77
2024/02/04 15:46:20;;;;;;;5.95;3.05;;;;;;;;;;6310487;28;20225;-77
2024/02/04 15:49:23;;;;;;;3.33;2.20;;;;;;;;;;6306356;28;20131;-77
2024/02/04 15:52:31;;;;;;;5.47;3.08;;;;;;;;;;6302772;28;20052;-76
2024/02/04 15:55:33;;;;;;;4.45;3.25;;;;;;;;;;6290410;28;20071;-76
2024/02/04 15:58:41;;;;;;;4.75;2.38;;;;;;;;;;6287451;28;20051;-75
2024/02/04 16:01:45;;;;;;;4.03;3.25;;;;;;;;;;6253292;28;20189;-76
2024/02/04 16:04:50;;;;;;;4.60;4.10;;;;;;;;;;6282972;28;20040;-76
2024/02/04 16:07:55;;;;;;;3.28;2.22;;;;;;;;;;6313581;28;20150;-76
2024/02/04 16:11:05;;;;;;;4.65;3.28;;;;;;;;;;6278949;28;20040;-77
2024/02/04 16:14:09;;;;;;;26.90;18.08;;;;;;;;;;6294787;28;20051;-77
2024/02/04 16:17:13;;;;;;;6.55;5.10;;;;;;;;;;6257991;28;20052;-77
2024/02/04 16:20:16;;;;;;;7.75;4.05;;;;;;;;;;6299172;28;20040;-76
2024/02/04 16:23:20;;;;;;;9.55;5.80;;;;;;;;;;6276210;28;20496;-76
2024/02/04 16:26:22;;;;;;;6.47;4.13;;;;;;;;;;6293287;28;20141;-76
2024/02/04 16:29:27;;;;;;;7.53;5.30;;;;;;;;;;6284440;28;20047;-76
2024/02/04 16:32:30;;;;;;;7.10;5.57;;;;;;;;;;6307509;28;20593;-76
2024/02/04 16:35:32;;;;;;;18.77;10.32;;;;;;;;;;6289149;28;20044;-76
2024/02/04 16:38:34;;;;;;;17.90;11.05;;;;;;;;;;6288278;28;20051;-76
2024/02/04 16:41:36;;;;;;;15.38;8.52;;;;;;;;;;6309582;28;20147;-76
2024/02/04 16:44:39;;;;;;;21.48;15.00;;;;;;;;;;6272480;28;20056;-76
2024/02/04 16:47:41;;;;;;;14.52;9.15;;;;;;;;;;6255498;28;20105;-76
2024/02/04 16:50:43;;;;;;;26.15;13.30;;;;;;;;;;6294457;28;20191;-76
2024/02/04 16:53:46;;;;;;;23.02;12.43;;;;;;;;;;6289306;28;20521;-78
2024/02/04 16:56:48;;;;;;;25.60;12.45;;;;;;;;;;6311147;28;20040;-76
2024/02/04 16:59:50;;;;;;;14.13;9.40;;;;;;;;;;6299344;28;20044;-76
2024/02/04 17:02:53;;;;;;;15.65;9.85;;;;;;;;;;6290919;28;20052;-76
2024/02/04 17:05:57;;;;;;;15.27;9.07;;;;;;;;;;6272844;28;20056;-76
2024/02/04 17:09:11;;;;;;;18.73;11.50;;;;;;;;;;6291736;28;20048;-76
2024/02/04 17:12:14;;;;;;;13.18;8.98;;;;;;;;;;6307260;28;20127;-75
2024/02/04 17:15:17;;;;;;;15.27;9.88;;;;;;;;;;6288261;28;20036;-75
2024/02/04 17:19:02;;;;;;;42.50;17.67;;;;;;;;;;6267314;28;20047;-76
2024/02/04 17:22:19;;;;;;;16.63;10.32;;;;;;;;;;6290571;28;20056;-76
2024/02/04 17:25:24;;;;;;;12.50;6.85;;;;;;;;;;6295122;28;20738;-76
2024/02/04 17:28:26;;;;;;;8.90;6.03;;;;;;;;;;6252169;28;20048;-76
2024/02/04 17:31:29;;;;;;;7.72;5.47;;;;;;;;;;6290287;28;20093;-76
2024/02/04 17:34:31;;;;;;;9.27;5.32;;;;;;;;;;6250691;28;20139;-76
2024/02/04 17:37:36;;;;;;;31.60;11.63;;;;;;;;;;6307652;28;20158;-76
2024/02/04 17:40:38;;;;;;;25.80;11.65;;;;;;;;;;6273037;28;20063;-75
2024/02/04 17:43:40;;;;;;;20.05;10.50;;;;;;;;;;6303449;28;20388;-76
2024/02/04 17:46:43;;;;;;;18.73;10.32;;;;;;;;;;6271463;28;20110;-76
2024/02/04 17:49:47;;;;;;;30.83;12.75;;;;;;;;;;6311762;28;20184;-77
2024/02/04 17:52:49;;;;;;;64.20;34.03;;;;;;;;;;6271787;28;20131;-76
2024/02/04 17:55:53;;;;;;;71.63;35.50;;;;;;;;;;6290568;28;20052;-76
2024/02/04 17:58:57;;;;;;;60.50;32.30;;;;;;;;;;6289971;28;20066;-76
2024/02/04 18:01:59;;;;;;;46.33;25.10;;;;;;;;;;6311249;28;20040;-75
2024/02/04 18:05:02;;;;;;;24.88;13.88;;;;;;;;;;6271632;28;20437;-75
2024/02/04 18:08:05;;;;;;;20.80;15.50;;;;;;;;;;6272146;28;20586;-76
2024/02/04 18:11:34;;;;;;;12.05;10.02;;;;;;;;;;6283013;28;20048;-75
2024/02/04 18:14:39;;;;;;;17.75;9.90;;;;;;;;;;6292623;28;20051;-75